Flight Track Log - Related Links

Times and Time Zones

All times are in EDT time to prevent confusion due to time zone crossing. See the ASQ6045 flight status page for this flight to view local times or setup timezone preferences in your user account.

Time Position Orientation Groundspeed Altitude Reporting Facility
EDT Latitude Longitude Course Direction KTS MPH feet Rate Location/Type
Fri 09:29:12 AM 41.9167 -87.9333 203° Southwest 198 228 3,500  Level Chicago TRACON
Fri 09:30:13 AM 41.8667 -87.9833 217° Southwest 256 295 5,500 2,286 Climbing Chicago TRACON
Fri 09:30:57 AM 41.8064 -87.9731 173° South 266 306 7,500 2,547 Climbing Chicago Center
Fri 09:31:00 AM 41.7727 -88.2346 203° Southwest  Level Estimated
Fri 09:31:59 AM 41.7328 -87.9986 195° South 279 321 10,000  Level Chicago Center
Fri 09:32:00 AM 41.7028 -88.3434 197° South  Level Estimated
Fri 09:33:00 AM 41.6085 -88.2755 152° Southeast  Level FlightAware Approximate
Fri 09:33:01 AM 41.6589 -88.0400 203° Southwest 288 331 12,400  Level Chicago Center
Fri 09:34:00 AM 41.5426 -88.3804 203° Southwest  Level Estimated
Fri 09:34:03 AM 41.5822 -88.0828 203° Southwest 298 343 14,400  Level Chicago Center
Fri 09:35:06 AM 41.4842 -88.1364 202° Southwest 322 371 16,800 1,824 Climbing Chicago Center
Fri 09:36:08 AM 41.3997 -88.1825 202° Southwest 344 396 18,200 1,113 Climbing Chicago Center
Fri 09:37:10 AM 41.3031 -88.2256 199° South 371 427 19,100 871 Climbing Chicago Center
Fri 09:38:12 AM 41.2008 -88.2717 199° South 389 448 20,000 871 Climbing Chicago Center
Fri 09:39:14 AM 41.0714 -88.3306 199° South 409 471 20,900 823 Climbing Chicago Center
Fri 09:40:16 AM 40.9600 -88.3797 198° South 422 486 21,700 774 Climbing Chicago Center
Fri 09:41:18 AM 40.8464 -88.4303 199° South 431 496 22,500 823 Climbing Chicago Center
Fri 09:42:20 AM 40.7322 -88.4825 199° South 436 502 23,400 871 Climbing Chicago Center
Fri 09:43:22 AM 40.6161 -88.5344 199° South 442 509 24,300 1,065 Climbing Chicago Center
Fri 09:44:24 AM 40.4769 -88.5956 198° South 444 511 25,600 1,161 Climbing Chicago Center
Fri 09:45:26 AM 40.3628 -88.6461 199° South 442 509 26,700 1,113 Climbing Chicago Center
Fri 09:46:28 AM 40.2664 -88.7292 213° Southwest 421 484 27,900 1,161 Climbing Chicago Center
Fri 09:47:30 AM 40.1878 -88.8317 225° Southwest 402 463 29,100 1,113 Climbing Chicago Center
Fri 09:48:32 AM 40.1106 -88.9311 225° Southwest 390 449 30,200 1,104 Climbing Chicago Center
Fri 09:49:35 AM 40.0311 -89.0308 224° Southwest 394 453 31,400 1,274 Climbing Chicago Center
Fri 09:50:25 AM 39.9533 -89.1328 225° Southwest 392 451 32,600 1,286 Climbing Kansas City Center
Fri 09:51:27 AM 39.8953 -89.2469 236° Southwest 379 436 33,800 1,220 Climbing Kansas City Center
Fri 09:52:28 AM 39.8389 -89.3614 237° Southwest 375 432 35,100 1,073 Climbing Kansas City Center
Fri 09:53:30 AM 39.7828 -89.4756 237° Southwest 375 432 36,000 435 Climbing Kansas City Center
Fri 09:54:32 AM 39.7231 -89.5933 237° Southwest 384 442 36,000  Level Kansas City Center
Fri 09:55:34 AM 39.6550 -89.7325 238° Southwest 403 464 36,000  Level Kansas City Center
Fri 09:56:36 AM 39.5922 -89.8561 237° Southwest 411 473 36,000  Level Kansas City Center
Fri 09:57:38 AM 39.5314 -89.9783 237° Southwest 407 468 36,000  Level Kansas City Center
Fri 09:58:40 AM 39.4700 -90.1011 237° Southwest 408 470 36,000  Level Kansas City Center
Fri 09:59:42 AM 39.4078 -90.2253 237° Southwest 410 472 36,000  Level Kansas City Center
Fri 10:00:44 AM 39.3322 -90.3739 237° Southwest 414 476 36,000  Level Kansas City Center
Fri 10:01:46 AM 39.2697 -90.4978 237° Southwest 415 478 36,000  Level Kansas City Center
Fri 10:02:48 AM 39.2064 -90.6217 237° Southwest 416 479 36,000  Level Kansas City Center
Fri 10:03:50 AM 39.1450 -90.7419 237° Southwest 410 472 36,000  Level Kansas City Center
Fri 10:04:52 AM 39.0817 -90.8636 236° Southwest 410 472 36,000  Level Kansas City Center
Fri 10:05:54 AM 39.0056 -91.0089 236° Southwest 412 474 36,000  Level Kansas City Center
Fri 10:06:56 AM 38.9433 -91.1283 236° Southwest 409 471 36,000  Level Kansas City Center
Fri 10:07:58 AM 38.8814 -91.2464 236° Southwest 406 467 36,000  Level Kansas City Center
Fri 10:09:00 AM 38.8192 -91.3658 236° Southwest 405 466 36,000  Level Kansas City Center
Fri 10:10:02 AM 38.7575 -91.4850 236° Southwest 405 466 36,000  Level Kansas City Center
Fri 10:11:04 AM 38.6911 -91.6108 236° Southwest 412 474 36,000  Level Kansas City Center
Fri 10:12:06 AM 38.6131 -91.7578 236° Southwest 415 478 36,000  Level Kansas City Center
Fri 10:13:08 AM 38.5458 -91.8808 235° Southwest 420 483 36,000  Level Kansas City Center
Fri 10:14:10 AM 38.4803 -92.0053 236° Southwest 423 487 36,000  Level Kansas City Center
Fri 10:15:12 AM 38.4125 -92.1292 235° Southwest 426 490 36,000  Level Kansas City Center
Fri 10:16:14 AM 38.3458 -92.2533 236° Southwest 427 491 36,000  Level Kansas City Center
Fri 10:17:16 AM 38.2786 -92.3767 235° Southwest 427 491 36,000  Level Kansas City Center
Fri 10:18:18 AM 38.1983 -92.5244 235° Southwest 429 494 36,000  Level Kansas City Center
Fri 10:19:20 AM 38.1333 -92.6464 236° Southwest 432 497 36,000  Level Kansas City Center
Fri 10:20:23 AM 38.0631 -92.7722 235° Southwest 431 496 36,000  Level Kansas City Center
Fri 10:21:25 AM 37.9956 -92.8917 234° Southwest 422 486 36,000  Level Kansas City Center
Fri 10:22:27 AM 37.9275 -93.0161 235° Southwest 425 489 36,000  Level Kansas City Center
Fri 10:23:29 AM 37.8464 -93.1656 236° Southwest 430 495 36,000  Level Kansas City Center
Fri 10:24:31 AM 37.7756 -93.2908 234° Southwest 434 499 36,000  Level Kansas City Center
Fri 10:25:33 AM 37.7069 -93.4144 235° Southwest 432 497 36,000  Level Kansas City Center
Fri 10:26:35 AM 37.6364 -93.5386 234° Southwest 434 499 36,000  Level Kansas City Center
Fri 10:27:37 AM 37.5647 -93.6622 234° Southwest 436 502 36,000  Level Kansas City Center
Fri 10:28:39 AM 37.4956 -93.7858 235° Southwest 433 498 36,000  Level Kansas City Center
Fri 10:29:41 AM 37.4131 -93.9319 235° Southwest 428 493 36,000 -387 Level Kansas City Center
Fri 10:30:43 AM 37.3439 -94.0544 235° Southwest 428 493 35,200 -823 Descending Kansas City Center
Fri 10:31:45 AM 37.2825 -94.1639 235° Southwest 431 496 34,300 -1,016 Descending Kansas City Center
Fri 10:32:47 AM 37.1975 -94.3094 234° Southwest 431 496 33,100 -1,306 Descending Kansas City Center
Fri 10:33:49 AM 37.1256 -94.4344 234° Southwest 438 504 31,600 -1,694 Descending Kansas City Center
Fri 10:34:51 AM 37.0506 -94.5644 234° Southwest 455 524 29,600 -1,935 Descending Kansas City Center
Fri 10:35:53 AM 36.9775 -94.6933 235° Southwest 456 525 27,600 -2,032 Descending Kansas City Center
Fri 10:36:55 AM 36.9008 -94.8228 233° Southwest 460 529 25,400 -2,226 Descending Kansas City Center
Fri 10:37:57 AM 36.8236 -94.9536 234° Southwest 467 537 23,000 -2,661 Descending Kansas City Center
Fri 10:38:59 AM 36.7333 -95.1072 234° Southwest 459 528 19,900 -2,710 Descending Kansas City Center
Fri 10:40:01 AM 36.6633 -95.2247 233° Southwest 429 494 17,400 -2,323 Descending Kansas City Center
Fri 10:41:03 AM 36.5819 -95.3253 225° Southwest 424 488 15,100 -2,081 Descending Kansas City Center
Fri 10:42:05 AM 36.4981 -95.4256 224° Southwest 415 478 13,100 -1,597 Descending Kansas City Center
Fri 10:43:07 AM 36.4025 -95.5292 221° Southwest 403 464 11,800 -1,113 Descending Kansas City Center
Fri 10:44:09 AM 36.3231 -95.5908 212° Southwest 352 405 10,800 -968 Descending Kansas City Center
Fri 10:45:11 AM 36.2575 -95.6394 211° Southwest 291 335 9,800 -1,258 Descending Kansas City Center
Fri 10:46:13 AM 36.1986 -95.6844 212° Southwest 260 299 8,200 -919 Descending Kansas City Center
Fri 10:47:15 AM 36.1353 -95.7353 213° Southwest 265 305 7,900 -1,016 Descending Kansas City Center
Fri 10:48:17 AM 36.0694 -95.7719 204° Southwest 262 302 6,100 -2,177 Descending Kansas City Center
Fri 10:49:19 AM 36.0106 -95.8383 222° Southwest 250 288 3,400 -1,742 Descending Kansas City Center
Fri 10:50:21 AM 36.0394 -95.8964 302° West 246 283 2,500 -871 Descending Kansas City Center

Login

Don't have an account? Register now (free) for customized features, flight alerts, and more!